sensor_id;sensor_type;location;lat;lon;timestamp;P1;durP1;ratioP1;P2;durP2;ratioP2
76320;SDS011;65132;52.088;5.402;2023-03-26T00:01:13;11.82;;;1.80;;
76320;SDS011;65132;52.088;5.402;2023-03-26T00:03:42;8.25;;;1.20;;
76320;SDS011;65132;52.088;5.402;2023-03-26T00:06:09;9.07;;;1.10;;
76320;SDS011;65132;52.088;5.402;2023-03-26T00:08:41;8.40;;;1.58;;
76320;SDS011;65132;52.088;5.402;2023-03-26T00:11:09;8.55;;;1.42;;
76320;SDS011;65132;52.088;5.402;2023-03-26T00:13:39;7.40;;;1.40;;
76320;SDS011;65132;52.088;5.402;2023-03-26T00:16:06;10.13;;;1.25;;
76320;SDS011;65132;52.088;5.402;2023-03-26T00:18:45;7.30;;;1.33;;
76320;SDS011;65132;52.088;5.402;2023-03-26T00:21:13;8.65;;;1.08;;
76320;SDS011;65132;52.088;5.402;2023-03-26T00:23:41;8.35;;;1.75;;
76320;SDS011;65132;52.088;5.402;2023-03-26T00:26:13;12.45;;;1.50;;
76320;SDS011;65132;52.088;5.402;2023-03-26T00:28:41;10.25;;;2.15;;
76320;SDS011;65132;52.088;5.402;2023-03-26T00:31:08;8.35;;;1.48;;
76320;SDS011;65132;52.088;5.402;2023-03-26T00:33:38;9.55;;;1.33;;
76320;SDS011;65132;52.088;5.402;2023-03-26T00:36:07;9.45;;;1.20;;
76320;SDS011;65132;52.088;5.402;2023-03-26T00:38:44;9.27;;;1.25;;
76320;SDS011;65132;52.088;5.402;2023-03-26T00:41:15;11.30;;;1.75;;
76320;SDS011;65132;52.088;5.402;2023-03-26T00:43:44;7.70;;;1.70;;
76320;SDS011;65132;52.088;5.402;2023-03-26T00:46:11;8.27;;;1.33;;
76320;SDS011;65132;52.088;5.402;2023-03-26T00:48:43;7.40;;;0.88;;
76320;SDS011;65132;52.088;5.402;2023-03-26T00:51:13;12.57;;;1.60;;
76320;SDS011;65132;52.088;5.402;2023-03-26T00:53:43;10.60;;;1.48;;
76320;SDS011;65132;52.088;5.402;2023-03-26T00:58:38;10.93;;;2.28;;
76320;SDS011;65132;52.088;5.402;2023-03-26T01:01:13;15.35;;;1.90;;
76320;SDS011;65132;52.088;5.402;2023-03-26T01:03:42;11.18;;;1.52;;
76320;SDS011;65132;52.088;5.402;2023-03-26T01:06:27;16.88;;;2.25;;
76320;SDS011;65132;52.088;5.402;2023-03-26T01:08:54;13.93;;;2.22;;
76320;SDS011;65132;52.088;5.402;2023-03-26T01:11:23;22.00;;;2.60;;
76320;SDS011;65132;52.088;5.402;2023-03-26T01:13:56;23.00;;;2.00;;
76320;SDS011;65132;52.088;5.402;2023-03-26T01:16:38;17.27;;;2.35;;
76320;SDS011;65132;52.088;5.402;2023-03-26T01:19:13;12.25;;;2.05;;
76320;SDS011;65132;52.088;5.402;2023-03-26T01:21:46;16.38;;;2.17;;
76320;SDS011;65132;52.088;5.402;2023-03-26T01:24:12;15.55;;;1.80;;
76320;SDS011;65132;52.088;5.402;2023-03-26T01:29:10;19.58;;;3.05;;
76320;SDS011;65132;52.088;5.402;2023-03-26T01:37:31;20.95;;;2.35;;
76320;SDS011;65132;52.088;5.402;2023-03-26T01:40:17;12.93;;;2.33;;
76320;SDS011;65132;52.088;5.402;2023-03-26T01:46:04;30.27;;;3.40;;
76320;SDS011;65132;52.088;5.402;2023-03-26T01:48:35;22.75;;;2.70;;
76320;SDS011;65132;52.088;5.402;2023-03-26T01:51:05;22.48;;;3.17;;
76320;SDS011;65132;52.088;5.402;2023-03-26T01:53:39;18.95;;;2.83;;
76320;SDS011;65132;52.088;5.402;2023-03-26T01:56:14;22.80;;;2.47;;
76320;SDS011;65132;52.088;5.402;2023-03-26T01:59:14;21.23;;;2.88;;
76320;SDS011;65132;52.088;5.402;2023-03-26T02:01:59;14.63;;;2.95;;
76320;SDS011;65132;52.088;5.402;2023-03-26T02:04:31;19.23;;;2.08;;
76320;SDS011;65132;52.088;5.402;2023-03-26T02:07:17;18.85;;;2.60;;
76320;SDS011;65132;52.088;5.402;2023-03-26T02:10:33;18.17;;;2.55;;
76320;SDS011;65132;52.088;5.402;2023-03-26T02:13:03;17.58;;;2.55;;
76320;SDS011;65132;52.088;5.402;2023-03-26T02:15:31;21.27;;;2.92;;
76320;SDS011;65132;52.088;5.402;2023-03-26T02:18:00;22.98;;;2.95;;
76320;SDS011;65132;52.088;5.402;2023-03-26T02:20:27;24.17;;;2.97;;
76320;SDS011;65132;52.088;5.402;2023-03-26T02:22:55;16.15;;;2.28;;
76320;SDS011;65132;52.088;5.402;2023-03-26T02:25:25;17.10;;;2.90;;
76320;SDS011;65132;52.088;5.402;2023-03-26T02:27:54;19.45;;;3.30;;
76320;SDS011;65132;52.088;5.402;2023-03-26T02:30:22;21.33;;;1.90;;
76320;SDS011;65132;52.088;5.402;2023-03-26T02:32:50;23.60;;;3.30;;
76320;SDS011;65132;52.088;5.402;2023-03-26T02:35:20;21.30;;;2.95;;
76320;SDS011;65132;52.088;5.402;2023-03-26T02:37:46;23.80;;;3.20;;
76320;SDS011;65132;52.088;5.402;2023-03-26T02:40:13;19.45;;;3.15;;
76320;SDS011;65132;52.088;5.402;2023-03-26T02:42:39;21.67;;;2.50;;
76320;SDS011;65132;52.088;5.402;2023-03-26T02:45:10;19.50;;;3.25;;
76320;SDS011;65132;52.088;5.402;2023-03-26T02:47:36;20.30;;;2.25;;
76320;SDS011;65132;52.088;5.402;2023-03-26T02:50:02;25.70;;;3.42;;
76320;SDS011;65132;52.088;5.402;2023-03-26T02:52:29;21.35;;;3.22;;
76320;SDS011;65132;52.088;5.402;2023-03-26T02:54:56;22.13;;;3.08;;
76320;SDS011;65132;52.088;5.402;2023-03-26T02:57:25;23.92;;;3.20;;
76320;SDS011;65132;52.088;5.402;2023-03-26T02:59:52;24.48;;;3.45;;
76320;SDS011;65132;52.088;5.402;2023-03-26T03:02:21;30.63;;;3.55;;
76320;SDS011;65132;52.088;5.402;2023-03-26T03:04:48;20.45;;;3.35;;
76320;SDS011;65132;52.088;5.402;2023-03-26T03:07:14;31.75;;;3.35;;
76320;SDS011;65132;52.088;5.402;2023-03-26T03:09:43;25.00;;;3.67;;
76320;SDS011;65132;52.088;5.402;2023-03-26T03:12:11;13.98;;;2.58;;
76320;SDS011;65132;52.088;5.402;2023-03-26T03:14:38;25.65;;;3.55;;
76320;SDS011;65132;52.088;5.402;2023-03-26T03:17:07;24.58;;;4.53;;
76320;SDS011;65132;52.088;5.402;2023-03-26T03:19:33;18.73;;;3.75;;
76320;SDS011;65132;52.088;5.402;2023-03-26T03:21:59;22.55;;;4.20;;
76320;SDS011;65132;52.088;5.402;2023-03-26T03:24:26;21.52;;;4.00;;
76320;SDS011;65132;52.088;5.402;2023-03-26T03:26:52;19.80;;;3.80;;
76320;SDS011;65132;52.088;5.402;2023-03-26T03:29:18;24.38;;;3.92;;
76320;SDS011;65132;52.088;5.402;2023-03-26T03:31:52;25.30;;;4.20;;
76320;SDS011;65132;52.088;5.402;2023-03-26T03:34:18;21.88;;;3.83;;
76320;SDS011;65132;52.088;5.402;2023-03-26T03:36:45;19.77;;;3.97;;
76320;SDS011;65132;52.088;5.402;2023-03-26T03:39:11;23.38;;;4.13;;
76320;SDS011;65132;52.088;5.402;2023-03-26T03:41:44;18.75;;;4.07;;
76320;SDS011;65132;52.088;5.402;2023-03-26T03:44:15;23.40;;;4.47;;
76320;SDS011;65132;52.088;5.402;2023-03-26T03:46:41;16.77;;;3.90;;
76320;SDS011;65132;52.088;5.402;2023-03-26T03:49:07;28.38;;;3.90;;
76320;SDS011;65132;52.088;5.402;2023-03-26T03:51:34;23.38;;;5.05;;
76320;SDS011;65132;52.088;5.402;2023-03-26T03:54:00;17.30;;;4.75;;
76320;SDS011;65132;52.088;5.402;2023-03-26T03:56:26;20.13;;;4.93;;
76320;SDS011;65132;52.088;5.402;2023-03-26T03:58:55;21.85;;;5.35;;
76320;SDS011;65132;52.088;5.402;2023-03-26T04:01:24;22.95;;;4.63;;
76320;SDS011;65132;52.088;5.402;2023-03-26T04:03:50;25.73;;;4.65;;
76320;SDS011;65132;52.088;5.402;2023-03-26T04:06:19;25.58;;;5.20;;
76320;SDS011;65132;52.088;5.402;2023-03-26T04:08:45;19.67;;;4.40;;
76320;SDS011;65132;52.088;5.402;2023-03-26T04:11:12;37.45;;;5.15;;
76320;SDS011;65132;52.088;5.402;2023-03-26T04:13:44;18.58;;;4.35;;
76320;SDS011;65132;52.088;5.402;2023-03-26T04:16:12;21.10;;;4.97;;
76320;SDS011;65132;52.088;5.402;2023-03-26T04:18:39;30.45;;;6.50;;
76320;SDS011;65132;52.088;5.402;2023-03-26T04:21:06;24.55;;;4.78;;
76320;SDS011;65132;52.088;5.402;2023-03-26T04:23:33;23.85;;;4.97;;
76320;SDS011;65132;52.088;5.402;2023-03-26T04:26:00;26.98;;;5.05;;
76320;SDS011;65132;52.088;5.402;2023-03-26T04:30:56;27.00;;;5.13;;
76320;SDS011;65132;52.088;5.402;2023-03-26T04:33:33;25.05;;;5.13;;
76320;SDS011;65132;52.088;5.402;2023-03-26T04:36:00;19.20;;;4.40;;
76320;SDS011;65132;52.088;5.402;2023-03-26T04:38:28;23.48;;;4.32;;
76320;SDS011;65132;52.088;5.402;2023-03-26T04:40:56;23.50;;;5.47;;
76320;SDS011;65132;52.088;5.402;2023-03-26T04:43:23;32.78;;;5.10;;
76320;SDS011;65132;52.088;5.402;2023-03-26T04:45:49;21.30;;;4.82;;
76320;SDS011;65132;52.088;5.402;2023-03-26T04:48:15;29.92;;;4.93;;
76320;SDS011;65132;52.088;5.402;2023-03-26T04:50:43;21.88;;;5.18;;
76320;SDS011;65132;52.088;5.402;2023-03-26T04:53:11;18.85;;;4.75;;
76320;SDS011;65132;52.088;5.402;2023-03-26T04:55:44;22.30;;;4.72;;
76320;SDS011;65132;52.088;5.402;2023-03-26T04:58:14;28.85;;;4.97;;
76320;SDS011;65132;52.088;5.402;2023-03-26T05:00:41;17.15;;;4.50;;
76320;SDS011;65132;52.088;5.402;2023-03-26T05:03:10;23.27;;;4.57;;
76320;SDS011;65132;52.088;5.402;2023-03-26T05:05:37;22.95;;;4.32;;
76320;SDS011;65132;52.088;5.402;2023-03-26T05:08:05;24.73;;;5.55;;
76320;SDS011;65132;52.088;5.402;2023-03-26T05:10:33;20.45;;;4.97;;
76320;SDS011;65132;52.088;5.402;2023-03-26T05:13:01;28.30;;;5.03;;
76320;SDS011;65132;52.088;5.402;2023-03-26T05:15:29;19.67;;;5.38;;
76320;SDS011;65132;52.088;5.402;2023-03-26T05:17:55;28.17;;;5.32;;
76320;SDS011;65132;52.088;5.402;2023-03-26T05:20:24;24.02;;;4.63;;
76320;SDS011;65132;52.088;5.402;2023-03-26T05:22:52;26.58;;;5.50;;
76320;SDS011;65132;52.088;5.402;2023-03-26T05:25:19;22.00;;;4.72;;
76320;SDS011;65132;52.088;5.402;2023-03-26T05:27:50;28.08;;;5.88;;
76320;SDS011;65132;52.088;5.402;2023-03-26T05:30:19;27.70;;;6.43;;
76320;SDS011;65132;52.088;5.402;2023-03-26T05:32:49;23.77;;;5.97;;
76320;SDS011;65132;52.088;5.402;2023-03-26T05:35:18;23.60;;;5.43;;
76320;SDS011;65132;52.088;5.402;2023-03-26T05:37:46;29.85;;;5.85;;
76320;SDS011;65132;52.088;5.402;2023-03-26T05:40:15;20.92;;;6.25;;
76320;SDS011;65132;52.088;5.402;2023-03-26T05:42:42;28.80;;;6.63;;
76320;SDS011;65132;52.088;5.402;2023-03-26T05:45:11;35.60;;;6.43;;
76320;SDS011;65132;52.088;5.402;2023-03-26T05:50:07;20.90;;;4.47;;
76320;SDS011;65132;52.088;5.402;2023-03-26T05:52:35;22.67;;;4.03;;
76320;SDS011;65132;52.088;5.402;2023-03-26T05:55:04;25.70;;;5.20;;
76320;SDS011;65132;52.088;5.402;2023-03-26T05:57:38;25.13;;;4.75;;
76320;SDS011;65132;52.088;5.402;2023-03-26T06:00:07;20.63;;;5.00;;
76320;SDS011;65132;52.088;5.402;2023-03-26T06:02:34;23.10;;;5.07;;
76320;SDS011;65132;52.088;5.402;2023-03-26T06:05:04;23.80;;;5.07;;
76320;SDS011;65132;52.088;5.402;2023-03-26T06:07:31;21.65;;;5.55;;
76320;SDS011;65132;52.088;5.402;2023-03-26T06:09:57;25.25;;;5.60;;
76320;SDS011;65132;52.088;5.402;2023-03-26T06:12:27;20.55;;;4.93;;
76320;SDS011;65132;52.088;5.402;2023-03-26T06:14:55;27.77;;;4.68;;
76320;SDS011;65132;52.088;5.402;2023-03-26T06:17:21;24.80;;;5.18;;
76320;SDS011;65132;52.088;5.402;2023-03-26T06:19:50;23.58;;;4.90;;
76320;SDS011;65132;52.088;5.402;2023-03-26T06:22:16;28.00;;;5.72;;
76320;SDS011;65132;52.088;5.402;2023-03-26T06:24:43;23.85;;;4.72;;
76320;SDS011;65132;52.088;5.402;2023-03-26T06:27:10;23.65;;;4.93;;
76320;SDS011;65132;52.088;5.402;2023-03-26T06:29:36;21.95;;;4.53;;
76320;SDS011;65132;52.088;5.402;2023-03-26T06:32:03;24.85;;;6.00;;
76320;SDS011;65132;52.088;5.402;2023-03-26T06:34:44;24.35;;;4.63;;
76320;SDS011;65132;52.088;5.402;2023-03-26T06:37:13;26.75;;;4.93;;
76320;SDS011;65132;52.088;5.402;2023-03-26T06:39:41;18.75;;;5.20;;
76320;SDS011;65132;52.088;5.402;2023-03-26T06:42:08;18.50;;;3.92;;
76320;SDS011;65132;52.088;5.402;2023-03-26T06:44:34;22.17;;;4.13;;
76320;SDS011;65132;52.088;5.402;2023-03-26T06:47:00;20.30;;;4.60;;
76320;SDS011;65132;52.088;5.402;2023-03-26T06:49:27;22.98;;;4.18;;
76320;SDS011;65132;52.088;5.402;2023-03-26T06:51:53;18.15;;;4.20;;
76320;SDS011;65132;52.088;5.402;2023-03-26T06:54:20;23.23;;;4.53;;
76320;SDS011;65132;52.088;5.402;2023-03-26T06:56:46;20.35;;;3.97;;
76320;SDS011;65132;52.088;5.402;2023-03-26T06:59:12;20.40;;;3.80;;
76320;SDS011;65132;52.088;5.402;2023-03-26T07:01:38;27.17;;;4.00;;
76320;SDS011;65132;52.088;5.402;2023-03-26T07:04:06;18.02;;;3.47;;
76320;SDS011;65132;52.088;5.402;2023-03-26T07:06:33;17.40;;;3.60;;
76320;SDS011;65132;52.088;5.402;2023-03-26T07:09:02;17.75;;;3.85;;
76320;SDS011;65132;52.088;5.402;2023-03-26T07:11:28;23.05;;;4.13;;
76320;SDS011;65132;52.088;5.402;2023-03-26T07:13:58;17.35;;;4.38;;
76320;SDS011;65132;52.088;5.402;2023-03-26T07:16:24;17.42;;;3.58;;
76320;SDS011;65132;52.088;5.402;2023-03-26T07:18:58;21.40;;;3.03;;
76320;SDS011;65132;52.088;5.402;2023-03-26T07:21:32;13.38;;;2.92;;
76320;SDS011;65132;52.088;5.402;2023-03-26T07:24:01;14.55;;;2.90;;
76320;SDS011;65132;52.088;5.402;2023-03-26T07:29:34;20.55;;;3.63;;
76320;SDS011;65132;52.088;5.402;2023-03-26T07:32:15;14.75;;;3.35;;
76320;SDS011;65132;52.088;5.402;2023-03-26T07:46:03;13.38;;;3.33;;
76320;SDS011;65132;52.088;5.402;2023-03-26T07:48:40;18.55;;;4.22;;
76320;SDS011;65132;52.088;5.402;2023-03-26T07:51:11;12.18;;;3.78;;
76320;SDS011;65132;52.088;5.402;2023-03-26T07:53:38;22.35;;;4.53;;
76320;SDS011;65132;52.088;5.402;2023-03-26T07:56:06;18.75;;;5.50;;
76320;SDS011;65132;52.088;5.402;2023-03-26T07:58:43;24.58;;;4.55;;
76320;SDS011;65132;52.088;5.402;2023-03-26T08:07:52;16.45;;;5.05;;
76320;SDS011;65132;52.088;5.402;2023-03-26T08:16:02;22.58;;;5.03;;
76320;SDS011;65132;52.088;5.402;2023-03-26T08:21:51;17.23;;;6.18;;
76320;SDS011;65132;52.088;5.402;2023-03-26T08:32:55;21.80;;;5.13;;
76320;SDS011;65132;52.088;5.402;2023-03-26T08:35:34;16.30;;;4.60;;
76320;SDS011;65132;52.088;5.402;2023-03-26T08:38:02;31.25;;;5.45;;
76320;SDS011;65132;52.088;5.402;2023-03-26T08:40:35;26.27;;;6.60;;
76320;SDS011;65132;52.088;5.402;2023-03-26T08:43:18;20.35;;;4.32;;
76320;SDS011;65132;52.088;5.402;2023-03-26T08:51:47;23.25;;;5.60;;
76320;SDS011;65132;52.088;5.402;2023-03-26T09:03:29;13.50;;;4.43;;
76320;SDS011;65132;52.088;5.402;2023-03-26T09:06:23;17.23;;;4.22;;
76320;SDS011;65132;52.088;5.402;2023-03-26T09:17:45;24.02;;;5.43;;
76320;SDS011;65132;52.088;5.402;2023-03-26T09:20:39;21.00;;;6.55;;
76320;SDS011;65132;52.088;5.402;2023-03-26T09:26:25;25.00;;;8.88;;
76320;SDS011;65132;52.088;5.402;2023-03-26T09:34:31;26.02;;;7.43;;
76320;SDS011;65132;52.088;5.402;2023-03-26T09:37:12;25.98;;;7.90;;
76320;SDS011;65132;52.088;5.402;2023-03-26T09:39:59;23.90;;;6.85;;
76320;SDS011;65132;52.088;5.402;2023-03-26T09:42:42;28.30;;;8.48;;
76320;SDS011;65132;52.088;5.402;2023-03-26T10:02:38;26.17;;;6.97;;
76320;SDS011;65132;52.088;5.402;2023-03-26T10:05:30;16.90;;;6.30;;
76320;SDS011;65132;52.088;5.402;2023-03-26T10:10:50;18.13;;;5.85;;
76320;SDS011;65132;52.088;5.402;2023-03-26T10:18:58;16.98;;;5.68;;
76320;SDS011;65132;52.088;5.402;2023-03-26T10:21:50;19.80;;;7.15;;
76320;SDS011;65132;52.088;5.402;2023-03-26T10:27:17;15.43;;;5.32;;
76320;SDS011;65132;52.088;5.402;2023-03-26T10:41:37;14.65;;;4.55;;
76320;SDS011;65132;52.088;5.402;2023-03-26T10:52:36;10.55;;;4.22;;
76320;SDS011;65132;52.088;5.402;2023-03-26T10:57:42;11.05;;;3.65;;
76320;SDS011;65132;52.088;5.402;2023-03-26T11:00:23;12.10;;;3.45;;
76320;SDS011;65132;52.088;5.402;2023-03-26T11:03:00;9.32;;;3.88;;
76320;SDS011;65132;52.088;5.402;2023-03-26T11:06:03;10.38;;;3.63;;
76320;SDS011;65132;52.088;5.402;2023-03-26T11:13:58;12.50;;;3.42;;
76320;SDS011;65132;52.088;5.402;2023-03-26T11:17:12;10.60;;;3.08;;
76320;SDS011;65132;52.088;5.402;2023-03-26T11:25:33;11.88;;;3.17;;
76320;SDS011;65132;52.088;5.402;2023-03-26T11:28:29;10.98;;;2.65;;
76320;SDS011;65132;52.088;5.402;2023-03-26T11:34:04;12.55;;;2.67;;
76320;SDS011;65132;52.088;5.402;2023-03-26T11:36:39;8.60;;;2.25;;
76320;SDS011;65132;52.088;5.402;2023-03-26T11:39:12;8.68;;;2.15;;
76320;SDS011;65132;52.088;5.402;2023-03-26T11:41:45;8.57;;;1.98;;
76320;SDS011;65132;52.088;5.402;2023-03-26T11:44:28;9.65;;;2.35;;
76320;SDS011;65132;52.088;5.402;2023-03-26T11:47:29;13.15;;;2.30;;
76320;SDS011;65132;52.088;5.402;2023-03-26T11:49:59;15.23;;;2.75;;
76320;SDS011;65132;52.088;5.402;2023-03-26T11:52:29;11.35;;;2.00;;
76320;SDS011;65132;52.088;5.402;2023-03-26T11:54:56;11.45;;;2.35;;
76320;SDS011;65132;52.088;5.402;2023-03-26T11:57:31;9.27;;;2.28;;
76320;SDS011;65132;52.088;5.402;2023-03-26T12:02:37;10.90;;;1.88;;
76320;SDS011;65132;52.088;5.402;2023-03-26T12:07:46;10.38;;;2.08;;
76320;SDS011;65132;52.088;5.402;2023-03-26T12:10:34;12.10;;;2.17;;
76320;SDS011;65132;52.088;5.402;2023-03-26T12:13:13;7.40;;;1.85;;
76320;SDS011;65132;52.088;5.402;2023-03-26T12:16:04;11.05;;;1.95;;
76320;SDS011;65132;52.088;5.402;2023-03-26T12:18:37;12.90;;;2.47;;
76320;SDS011;65132;52.088;5.402;2023-03-26T12:21:13;7.30;;;1.52;;
76320;SDS011;65132;52.088;5.402;2023-03-26T12:26:12;10.00;;;2.70;;
76320;SDS011;65132;52.088;5.402;2023-03-26T12:28:48;14.68;;;2.63;;
76320;SDS011;65132;52.088;5.402;2023-03-26T12:31:18;10.20;;;3.00;;
76320;SDS011;65132;52.088;5.402;2023-03-26T12:33:50;10.98;;;2.25;;
76320;SDS011;65132;52.088;5.402;2023-03-26T12:36:32;5.82;;;2.03;;
76320;SDS011;65132;52.088;5.402;2023-03-26T12:39:14;10.02;;;1.80;;
76320;SDS011;65132;52.088;5.402;2023-03-26T12:42:23;11.93;;;2.38;;
76320;SDS011;65132;52.088;5.402;2023-03-26T12:45:14;7.13;;;2.10;;
76320;SDS011;65132;52.088;5.402;2023-03-26T12:47:43;7.70;;;1.63;;
76320;SDS011;65132;52.088;5.402;2023-03-26T12:50:34;11.07;;;1.73;;
76320;SDS011;65132;52.088;5.402;2023-03-26T12:53:14;11.27;;;1.73;;
76320;SDS011;65132;52.088;5.402;2023-03-26T12:56:15;7.35;;;1.30;;
76320;SDS011;65132;52.088;5.402;2023-03-26T13:05:00;11.48;;;1.77;;
76320;SDS011;65132;52.088;5.402;2023-03-26T13:13:01;5.07;;;1.10;;
76320;SDS011;65132;52.088;5.402;2023-03-26T13:19:13;6.28;;;1.15;;
76320;SDS011;65132;52.088;5.402;2023-03-26T13:24:40;4.10;;;0.80;;
76320;SDS011;65132;52.088;5.402;2023-03-26T13:27:25;5.78;;;0.60;;
76320;SDS011;65132;52.088;5.402;2023-03-26T13:29:59;3.38;;;0.85;;
76320;SDS011;65132;52.088;5.402;2023-03-26T13:35:30;4.35;;;0.90;;
76320;SDS011;65132;52.088;5.402;2023-03-26T13:43:10;5.65;;;1.20;;
76320;SDS011;65132;52.088;5.402;2023-03-26T13:48:53;7.85;;;1.08;;
76320;SDS011;65132;52.088;5.402;2023-03-26T13:51:29;7.38;;;0.73;;
76320;SDS011;65132;52.088;5.402;2023-03-26T13:54:09;7.13;;;1.00;;
76320;SDS011;65132;52.088;5.402;2023-03-26T13:56:51;4.88;;;0.98;;
76320;SDS011;65132;52.088;5.402;2023-03-26T14:02:07;3.97;;;0.73;;
76320;SDS011;65132;52.088;5.402;2023-03-26T14:04:41;5.85;;;0.80;;
76320;SDS011;65132;52.088;5.402;2023-03-26T14:07:24;8.52;;;0.80;;
76320;SDS011;65132;52.088;5.402;2023-03-26T14:10:00;3.88;;;0.80;;
76320;SDS011;65132;52.088;5.402;2023-03-26T14:15:30;9.80;;;1.23;;
76320;SDS011;65132;52.088;5.402;2023-03-26T14:32:28;6.00;;;0.75;;
76320;SDS011;65132;52.088;5.402;2023-03-26T14:55:22;4.07;;;0.68;;
76320;SDS011;65132;52.088;5.402;2023-03-26T15:10:13;6.50;;;1.20;;
76320;SDS011;65132;52.088;5.402;2023-03-26T15:12:59;4.55;;;1.05;;
76320;SDS011;65132;52.088;5.402;2023-03-26T15:30:00;5.28;;;1.00;;
76320;SDS011;65132;52.088;5.402;2023-03-26T15:36:02;6.07;;;0.90;;
76320;SDS011;65132;52.088;5.402;2023-03-26T15:42:01;4.07;;;0.90;;
76320;SDS011;65132;52.088;5.402;2023-03-26T15:44:49;5.00;;;0.60;;
76320;SDS011;65132;52.088;5.402;2023-03-26T15:47:37;4.60;;;0.68;;
76320;SDS011;65132;52.088;5.402;2023-03-26T15:53:38;5.57;;;0.70;;
76320;SDS011;65132;52.088;5.402;2023-03-26T15:56:21;2.80;;;0.52;;
76320;SDS011;65132;52.088;5.402;2023-03-26T16:18:45;3.78;;;0.52;;
76320;SDS011;65132;52.088;5.402;2023-03-26T16:31:35;8.02;;;0.80;;
76320;SDS011;65132;52.088;5.402;2023-03-26T16:41:50;4.57;;;0.70;;
76320;SDS011;65132;52.088;5.402;2023-03-26T16:47:31;4.82;;;0.50;;
76320;SDS011;65132;52.088;5.402;2023-03-26T16:50:32;4.25;;;0.50;;
76320;SDS011;65132;52.088;5.402;2023-03-26T17:04:03;6.25;;;0.50;;
76320;SDS011;65132;52.088;5.402;2023-03-26T17:06:50;5.43;;;0.75;;
76320;SDS011;65132;52.088;5.402;2023-03-26T17:12:21;4.43;;;1.00;;
76320;SDS011;65132;52.088;5.402;2023-03-26T17:20:28;4.15;;;0.40;;
76320;SDS011;65132;52.088;5.402;2023-03-26T17:25:36;5.05;;;0.47;;
76320;SDS011;65132;52.088;5.402;2023-03-26T17:33:50;2.75;;;0.40;;
76320;SDS011;65132;52.088;5.402;2023-03-26T17:39:17;4.55;;;0.90;;
76320;SDS011;65132;52.088;5.402;2023-03-26T17:42:09;4.75;;;0.77;;
76320;SDS011;65132;52.088;5.402;2023-03-26T17:44:49;2.45;;;0.60;;
76320;SDS011;65132;52.088;5.402;2023-03-26T17:49:59;4.03;;;0.40;;
76320;SDS011;65132;52.088;5.402;2023-03-26T17:55:17;3.72;;;0.65;;
76320;SDS011;65132;52.088;5.402;2023-03-26T17:57:52;6.50;;;0.82;;
76320;SDS011;65132;52.088;5.402;2023-03-26T18:00:24;1.42;;;0.40;;
76320;SDS011;65132;52.088;5.402;2023-03-26T18:02:59;2.50;;;0.30;;
76320;SDS011;65132;52.088;5.402;2023-03-26T18:05:31;5.00;;;0.70;;
76320;SDS011;65132;52.088;5.402;2023-03-26T18:08:15;2.42;;;0.73;;
76320;SDS011;65132;52.088;5.402;2023-03-26T18:13:49;5.65;;;0.38;;
76320;SDS011;65132;52.088;5.402;2023-03-26T18:22:33;5.72;;;0.82;;
76320;SDS011;65132;52.088;5.402;2023-03-26T18:25:00;4.80;;;0.57;;
76320;SDS011;65132;52.088;5.402;2023-03-26T18:27:31;5.97;;;0.63;;
76320;SDS011;65132;52.088;5.402;2023-03-26T18:30:02;6.45;;;0.43;;
76320;SDS011;65132;52.088;5.402;2023-03-26T18:35:44;4.72;;;0.63;;
76320;SDS011;65132;52.088;5.402;2023-03-26T18:38:19;2.60;;;0.75;;
76320;SDS011;65132;52.088;5.402;2023-03-26T18:41:03;1.90;;;0.30;;
76320;SDS011;65132;52.088;5.402;2023-03-26T18:43:32;4.10;;;0.20;;
76320;SDS011;65132;52.088;5.402;2023-03-26T18:46:11;9.57;;;0.82;;
76320;SDS011;65132;52.088;5.402;2023-03-26T18:48:40;2.92;;;0.55;;
76320;SDS011;65132;52.088;5.402;2023-03-26T18:51:08;4.03;;;0.70;;
76320;SDS011;65132;52.088;5.402;2023-03-26T18:53:44;3.17;;;0.40;;
76320;SDS011;65132;52.088;5.402;2023-03-26T18:59:41;2.70;;;0.10;;
76320;SDS011;65132;52.088;5.402;2023-03-26T19:02:10;3.28;;;0.60;;
76320;SDS011;65132;52.088;5.402;2023-03-26T19:04:45;3.45;;;0.50;;
76320;SDS011;65132;52.088;5.402;2023-03-26T19:07:19;6.10;;;0.68;;
76320;SDS011;65132;52.088;5.402;2023-03-26T19:09:48;7.80;;;0.63;;
76320;SDS011;65132;52.088;5.402;2023-03-26T19:12:18;3.80;;;0.50;;
76320;SDS011;65132;52.088;5.402;2023-03-26T19:15:02;5.05;;;0.82;;
76320;SDS011;65132;52.088;5.402;2023-03-26T19:17:39;6.43;;;0.68;;
76320;SDS011;65132;52.088;5.402;2023-03-26T19:20:15;3.63;;;0.43;;
76320;SDS011;65132;52.088;5.402;2023-03-26T19:22:46;6.55;;;0.40;;
76320;SDS011;65132;52.088;5.402;2023-03-26T19:25:32;2.53;;;0.45;;
76320;SDS011;65132;52.088;5.402;2023-03-26T19:28:09;1.95;;;0.50;;
76320;SDS011;65132;52.088;5.402;2023-03-26T19:30:41;5.63;;;0.57;;
76320;SDS011;65132;52.088;5.402;2023-03-26T19:33:18;3.42;;;0.15;;
76320;SDS011;65132;52.088;5.402;2023-03-26T19:35:52;7.25;;;0.80;;
76320;SDS011;65132;52.088;5.402;2023-03-26T19:38:27;7.78;;;0.47;;
76320;SDS011;65132;52.088;5.402;2023-03-26T19:40:55;3.97;;;0.40;;
76320;SDS011;65132;52.088;5.402;2023-03-26T19:43:25;10.52;;;0.88;;
76320;SDS011;65132;52.088;5.402;2023-03-26T19:45:52;8.35;;;0.40;;
76320;SDS011;65132;52.088;5.402;2023-03-26T19:48:27;5.38;;;0.60;;
76320;SDS011;65132;52.088;5.402;2023-03-26T19:51:16;3.25;;;0.60;;
76320;SDS011;65132;52.088;5.402;2023-03-26T19:53:48;6.22;;;0.40;;
76320;SDS011;65132;52.088;5.402;2023-03-26T19:56:18;4.75;;;0.57;;
76320;SDS011;65132;52.088;5.402;2023-03-26T19:58:46;3.90;;;0.90;;
76320;SDS011;65132;52.088;5.402;2023-03-26T20:01:17;2.92;;;0.43;;
76320;SDS011;65132;52.088;5.402;2023-03-26T20:03:52;2.63;;;0.35;;
76320;SDS011;65132;52.088;5.402;2023-03-26T20:06:21;2.75;;;0.43;;
76320;SDS011;65132;52.088;5.402;2023-03-26T20:09:03;3.83;;;0.63;;
76320;SDS011;65132;52.088;5.402;2023-03-26T20:11:32;3.42;;;0.47;;
76320;SDS011;65132;52.088;5.402;2023-03-26T20:14:13;2.47;;;0.38;;
76320;SDS011;65132;52.088;5.402;2023-03-26T20:16:41;3.30;;;0.73;;
76320;SDS011;65132;52.088;5.402;2023-03-26T20:19:11;5.55;;;0.60;;
76320;SDS011;65132;52.088;5.402;2023-03-26T20:21:37;2.05;;;0.30;;
76320;SDS011;65132;52.088;5.402;2023-03-26T20:24:08;3.30;;;0.43;;
76320;SDS011;65132;52.088;5.402;2023-03-26T20:26:37;1.90;;;0.38;;
76320;SDS011;65132;52.088;5.402;2023-03-26T20:29:03;2.67;;;0.45;;
76320;SDS011;65132;52.088;5.402;2023-03-26T20:31:31;8.30;;;0.47;;
76320;SDS011;65132;52.088;5.402;2023-03-26T20:33:57;4.43;;;0.60;;
76320;SDS011;65132;52.088;5.402;2023-03-26T20:36:26;9.60;;;0.70;;
76320;SDS011;65132;52.088;5.402;2023-03-26T20:39:00;7.32;;;0.77;;
76320;SDS011;65132;52.088;5.402;2023-03-26T20:41:27;2.63;;;0.47;;
76320;SDS011;65132;52.088;5.402;2023-03-26T20:43:54;2.22;;;0.43;;
76320;SDS011;65132;52.088;5.402;2023-03-26T20:46:22;4.05;;;0.15;;
76320;SDS011;65132;52.088;5.402;2023-03-26T20:48:56;3.80;;;0.20;;
76320;SDS011;65132;52.088;5.402;2023-03-26T20:51:25;5.38;;;0.95;;
76320;SDS011;65132;52.088;5.402;2023-03-26T20:53:52;2.28;;;0.30;;
76320;SDS011;65132;52.088;5.402;2023-03-26T20:56:18;5.40;;;0.60;;
76320;SDS011;65132;52.088;5.402;2023-03-26T20:58:46;4.43;;;0.47;;
76320;SDS011;65132;52.088;5.402;2023-03-26T21:01:17;4.10;;;0.30;;
76320;SDS011;65132;52.088;5.402;2023-03-26T21:03:46;6.15;;;0.70;;
76320;SDS011;65132;52.088;5.402;2023-03-26T21:06:12;3.60;;;0.50;;
76320;SDS011;65132;52.088;5.402;2023-03-26T21:08:42;3.05;;;0.13;;
76320;SDS011;65132;52.088;5.402;2023-03-26T21:13:59;1.23;;;0.40;;
76320;SDS011;65132;52.088;5.402;2023-03-26T21:16:31;2.15;;;0.50;;
76320;SDS011;65132;52.088;5.402;2023-03-26T21:18:58;5.40;;;0.57;;